sensor_id;sensor_type;location;lat;lon;timestamp;pressure;altitude;pressure_sealevel;temperature;humidity
53506;BME280;39388;50.936;6.848;2022-10-22T00:00:37;100444.59;;;15.18;100.00
53506;BME280;39388;50.936;6.848;2022-10-22T00:03:07;100443.56;;;15.24;100.00
53506;BME280;39388;50.936;6.848;2022-10-22T00:05:37;100448.78;;;15.24;100.00
53506;BME280;39388;50.936;6.848;2022-10-22T00:08:08;100443.72;;;15.19;100.00
53506;BME280;39388;50.936;6.848;2022-10-22T00:10:39;100459.16;;;15.24;100.00
53506;BME280;39388;50.936;6.848;2022-10-22T00:13:10;100447.94;;;15.23;100.00
53506;BME280;39388;50.936;6.848;2022-10-22T00:15:40;100447.88;;;15.25;100.00
53506;BME280;39388;50.936;6.848;2022-10-22T00:18:11;100457.28;;;15.29;100.00
53506;BME280;39388;50.936;6.848;2022-10-22T00:20:41;100453.81;;;15.28;100.00
53506;BME280;39388;50.936;6.848;2022-10-22T00:23:12;100455.53;;;15.29;100.00
53506;BME280;39388;50.936;6.848;2022-10-22T00:25:42;100451.97;;;15.34;100.00
53506;BME280;39388;50.936;6.848;2022-10-22T00:28:13;100438.34;;;15.25;100.00
53506;BME280;39388;50.936;6.848;2022-10-22T00:30:44;100460.47;;;15.39;100.00
53506;BME280;39388;50.936;6.848;2022-10-22T00:33:14;100457.88;;;15.39;100.00
53506;BME280;39388;50.936;6.848;2022-10-22T00:35:46;100453.59;;;15.38;100.00
53506;BME280;39388;50.936;6.848;2022-10-22T00:38:16;100447.50;;;15.39;100.00
53506;BME280;39388;50.936;6.848;2022-10-22T00:40:47;100453.50;;;15.41;100.00
53506;BME280;39388;50.936;6.848;2022-10-22T00:43:18;100460.44;;;15.40;100.00
53506;BME280;39388;50.936;6.848;2022-10-22T00:45:49;100457.00;;;15.40;100.00
53506;BME280;39388;50.936;6.848;2022-10-22T00:48:27;100451.00;;;15.36;100.00
53506;BME280;39388;50.936;6.848;2022-10-22T00:51:01;100445.66;;;15.42;100.00
53506;BME280;39388;50.936;6.848;2022-10-22T00:53:37;100450.78;;;15.44;100.00
53506;BME280;39388;50.936;6.848;2022-10-22T00:56:08;100447.44;;;15.40;100.00
53506;BME280;39388;50.936;6.848;2022-10-22T00:58:45;100449.06;;;15.44;100.00
53506;BME280;39388;50.936;6.848;2022-10-22T01:01:20;100430.34;;;15.33;100.00
53506;BME280;39388;50.936;6.848;2022-10-22T01:03:52;100446.47;;;15.44;100.00
53506;BME280;39388;50.936;6.848;2022-10-22T01:06:31;100455.09;;;15.45;100.00
53506;BME280;39388;50.936;6.848;2022-10-22T01:17:24;100449.06;;;15.44;100.00
53506;BME280;39388;50.936;6.848;2022-10-22T01:22:54;100433.59;;;15.40;100.00
53506;BME280;39388;50.936;6.848;2022-10-22T01:30:52;100438.81;;;15.40;100.00
53506;BME280;39388;50.936;6.848;2022-10-22T01:33:25;100433.47;;;15.44;100.00
53506;BME280;39388;50.936;6.848;2022-10-22T01:35:57;100427.41;;;15.44;100.00
53506;BME280;39388;50.936;6.848;2022-10-22T01:38:29;100427.41;;;15.44;100.00
53506;BME280;39388;50.936;6.848;2022-10-22T01:41:00;100416.31;;;15.39;100.00
53506;BME280;39388;50.936;6.848;2022-10-22T01:43:30;100429.09;;;15.45;100.00
53506;BME280;39388;50.936;6.848;2022-10-22T01:46:02;100438.66;;;15.44;100.00
53506;BME280;39388;50.936;6.848;2022-10-22T01:51:35;100438.66;;;15.44;100.00
53506;BME280;39388;50.936;6.848;2022-10-22T01:54:30;100427.47;;;15.42;100.00
53506;BME280;39388;50.936;6.848;2022-10-22T02:02:42;100425.75;;;15.41;100.00
53506;BME280;39388;50.936;6.848;2022-10-22T02:05:38;100442.28;;;15.39;100.00
53506;BME280;39388;50.936;6.848;2022-10-22T02:08:16;100447.44;;;15.40;100.00
53506;BME280;39388;50.936;6.848;2022-10-22T02:10:50;100440.50;;;15.41;100.00
53506;BME280;39388;50.936;6.848;2022-10-22T02:13:26;100445.72;;;15.41;100.00
53506;BME280;39388;50.936;6.848;2022-10-22T02:15:58;100432.06;;;15.33;100.00
53506;BME280;39388;50.936;6.848;2022-10-22T02:18:31;100442.28;;;15.39;100.00
53506;BME280;39388;50.936;6.848;2022-10-22T02:21:02;100439.72;;;15.37;100.00
53506;BME280;39388;50.936;6.848;2022-10-22T02:23:33;100451.75;;;15.41;100.00
53506;BME280;39388;50.936;6.848;2022-10-22T02:26:13;100443.13;;;15.39;100.00
53506;BME280;39388;50.936;6.848;2022-10-22T02:28:51;100428.78;;;15.27;100.00
53506;BME280;39388;50.936;6.848;2022-10-22T02:31:29;100437.34;;;15.29;100.00
53506;BME280;39388;50.936;6.848;2022-10-22T02:34:04;100437.34;;;15.29;100.00
53506;BME280;39388;50.936;6.848;2022-10-22T02:36:39;100446.00;;;15.30;100.00
53506;BME280;39388;50.936;6.848;2022-10-22T02:39:11;100441.84;;;15.24;100.00
53506;BME280;39388;50.936;6.848;2022-10-22T02:41:42;100447.13;;;15.21;100.00
53506;BME280;39388;50.936;6.848;2022-10-22T02:44:13;100444.56;;;15.20;100.00
53506;BME280;39388;50.936;6.848;2022-10-22T02:46:43;100439.38;;;15.20;100.00
53506;BME280;39388;50.936;6.848;2022-10-22T02:49:13;100444.56;;;15.20;100.00
53506;BME280;39388;50.936;6.848;2022-10-22T02:51:44;100442.16;;;15.13;100.00
53506;BME280;39388;50.936;6.848;2022-10-22T02:54:14;100447.34;;;15.13;100.00
53506;BME280;39388;50.936;6.848;2022-10-22T02:56:45;100451.72;;;15.11;100.00
53506;BME280;39388;50.936;6.848;2022-10-22T02:59:15;100449.09;;;15.13;100.00
53506;BME280;39388;50.936;6.848;2022-10-22T03:01:45;100455.94;;;15.15;100.00
53506;BME280;39388;50.936;6.848;2022-10-22T03:04:16;100450.69;;;15.17;100.00
53506;BME280;39388;50.936;6.848;2022-10-22T03:06:46;100450.75;;;15.15;100.00
53506;BME280;39388;50.936;6.848;2022-10-22T03:09:18;100455.97;;;15.14;100.00
53506;BME280;39388;50.936;6.848;2022-10-22T03:11:48;100461.22;;;15.12;100.00
53506;BME280;39388;50.936;6.848;2022-10-22T03:14:19;100464.69;;;15.11;100.00
53506;BME280;39388;50.936;6.848;2022-10-22T03:16:49;100453.56;;;15.08;100.00
53506;BME280;39388;50.936;6.848;2022-10-22T03:19:19;100458.81;;;15.05;100.00
53506;BME280;39388;50.936;6.848;2022-10-22T03:22:00;100467.50;;;15.04;100.00
53506;BME280;39388;50.936;6.848;2022-10-22T03:24:38;100453.91;;;14.94;100.00
53506;BME280;39388;50.936;6.848;2022-10-22T03:27:12;100457.31;;;14.97;100.00
53506;BME280;39388;50.936;6.848;2022-10-22T03:29:43;100467.69;;;14.97;100.00
53506;BME280;39388;50.936;6.848;2022-10-22T03:32:14;100463.47;;;14.93;100.00
53506;BME280;39388;50.936;6.848;2022-10-22T03:34:44;100464.34;;;14.92;100.00
53506;BME280;39388;50.936;6.848;2022-10-22T03:37:14;100465.09;;;14.97;100.00
53506;BME280;39388;50.936;6.848;2022-10-22T03:39:45;100465.81;;;15.03;100.00
53506;BME280;39388;50.936;6.848;2022-10-22T03:42:16;100470.91;;;15.06;100.00
53506;BME280;39388;50.936;6.848;2022-10-22T03:44:46;100471.72;;;15.08;100.00
53506;BME280;39388;50.936;6.848;2022-10-22T03:47:17;100467.44;;;15.07;100.00
53506;BME280;39388;50.936;6.848;2022-10-22T03:49:47;100473.50;;;15.06;100.00
53506;BME280;39388;50.936;6.848;2022-10-22T03:52:18;100473.56;;;15.04;100.00
53506;BME280;39388;50.936;6.848;2022-10-22T03:54:48;100469.28;;;15.02;100.00
53506;BME280;39388;50.936;6.848;2022-10-22T03:57:19;100468.53;;;14.98;100.00
53506;BME280;39388;50.936;6.848;2022-10-22T03:59:49;100468.66;;;14.93;100.00
53506;BME280;39388;50.936;6.848;2022-10-22T04:02:20;100480.00;;;14.91;100.00
53506;BME280;39388;50.936;6.848;2022-10-22T04:04:51;100477.41;;;14.89;100.00
53506;BME280;39388;50.936;6.848;2022-10-22T04:07:21;100480.94;;;14.87;100.00
53506;BME280;39388;50.936;6.848;2022-10-22T04:09:51;100478.47;;;14.82;100.00
53506;BME280;39388;50.936;6.848;2022-10-22T04:12:22;100481.03;;;14.83;100.00
53506;BME280;39388;50.936;6.848;2022-10-22T04:14:52;100482.81;;;14.81;100.00
53506;BME280;39388;50.936;6.848;2022-10-22T04:17:22;100493.19;;;14.81;100.00
53506;BME280;39388;50.936;6.848;2022-10-22T04:19:53;100483.78;;;14.76;100.00
53506;BME280;39388;50.936;6.848;2022-10-22T04:22:23;100489.88;;;14.75;100.00
53506;BME280;39388;50.936;6.848;2022-10-22T04:24:54;100495.13;;;14.73;100.00
53506;BME280;39388;50.936;6.848;2022-10-22T04:27:24;100494.41;;;14.66;100.00
53506;BME280;39388;50.936;6.848;2022-10-22T04:29:54;100499.53;;;14.69;100.00
53506;BME280;39388;50.936;6.848;2022-10-22T04:32:26;100507.31;;;14.69;100.00
53506;BME280;39388;50.936;6.848;2022-10-22T04:34:56;100504.94;;;14.60;100.00
53506;BME280;39388;50.936;6.848;2022-10-22T04:37:27;100489.63;;;14.49;100.00
53506;BME280;39388;50.936;6.848;2022-10-22T04:39:57;100509.34;;;14.57;100.00
53506;BME280;39388;50.936;6.848;2022-10-22T04:42:27;100521.41;;;14.59;100.00
53506;BME280;39388;50.936;6.848;2022-10-22T04:44:58;100530.13;;;14.57;100.00
53506;BME280;39388;50.936;6.848;2022-10-22T04:47:28;100525.00;;;14.53;100.00
53506;BME280;39388;50.936;6.848;2022-10-22T04:49:58;100531.91;;;14.54;100.00
53506;BME280;39388;50.936;6.848;2022-10-22T04:52:30;100525.94;;;14.51;100.00
53506;BME280;39388;50.936;6.848;2022-10-22T04:55:00;100528.59;;;14.48;100.00
53506;BME280;39388;50.936;6.848;2022-10-22T04:57:31;100526.06;;;14.46;100.00
53506;BME280;39388;50.936;6.848;2022-10-22T05:00:01;100525.19;;;14.46;100.00
53506;BME280;39388;50.936;6.848;2022-10-22T05:02:32;100523.63;;;14.38;100.00
53506;BME280;39388;50.936;6.848;2022-10-22T05:05:02;100529.66;;;14.39;100.00
53506;BME280;39388;50.936;6.848;2022-10-22T05:07:33;100528.78;;;14.40;100.00
53506;BME280;39388;50.936;6.848;2022-10-22T05:10:04;100538.34;;;14.38;100.00
53506;BME280;39388;50.936;6.848;2022-10-22T05:12:34;100514.28;;;14.31;100.00
53506;BME280;39388;50.936;6.848;2022-10-22T05:15:05;100524.63;;;14.33;100.00
53506;BME280;39388;50.936;6.848;2022-10-22T05:17:35;100533.25;;;14.33;100.00
53506;BME280;39388;50.936;6.848;2022-10-22T05:20:07;100541.09;;;14.32;100.00
53506;BME280;39388;50.936;6.848;2022-10-22T05:22:37;100547.16;;;14.31;100.00
53506;BME280;39388;50.936;6.848;2022-10-22T05:25:08;100541.22;;;14.26;100.00
53506;BME280;39388;50.936;6.848;2022-10-22T05:27:38;100548.88;;;14.30;100.00
53506;BME280;39388;50.936;6.848;2022-10-22T05:30:09;100556.66;;;14.32;100.00
53506;BME280;39388;50.936;6.848;2022-10-22T05:32:39;100541.25;;;14.24;100.00
53506;BME280;39388;50.936;6.848;2022-10-22T05:35:10;100557.59;;;14.28;100.00
53506;BME280;39388;50.936;6.848;2022-10-22T05:37:40;100540.56;;;14.16;100.00
53506;BME280;39388;50.936;6.848;2022-10-22T05:40:10;100561.19;;;14.22;100.00
53506;BME280;39388;50.936;6.848;2022-10-22T05:42:41;100561.19;;;14.22;100.00
53506;BME280;39388;50.936;6.848;2022-10-22T05:45:11;100559.53;;;14.18;100.00
53506;BME280;39388;50.936;6.848;2022-10-22T05:47:42;100565.53;;;14.20;100.00
53506;BME280;39388;50.936;6.848;2022-10-22T05:50:12;100561.25;;;14.19;100.00
53506;BME280;39388;50.936;6.848;2022-10-22T05:52:42;100570.75;;;14.20;100.00
53506;BME280;39388;50.936;6.848;2022-10-22T05:55:13;100564.72;;;14.19;100.00
53506;BME280;39388;50.936;6.848;2022-10-22T05:57:43;100573.31;;;14.20;100.00
53506;BME280;39388;50.936;6.848;2022-10-22T06:00:14;100579.41;;;14.19;100.00
53506;BME280;39388;50.936;6.848;2022-10-22T06:02:48;100594.84;;;14.23;100.00
53506;BME280;39388;50.936;6.848;2022-10-22T06:05:19;100591.41;;;14.23;100.00
53506;BME280;39388;50.936;6.848;2022-10-22T06:07:49;100585.41;;;14.21;100.00
53506;BME280;39388;50.936;6.848;2022-10-22T06:10:20;100594.91;;;14.22;100.00
53506;BME280;39388;50.936;6.848;2022-10-22T06:12:50;100584.69;;;14.14;100.00
53506;BME280;39388;50.936;6.848;2022-10-22T06:15:21;100609.47;;;14.28;100.00
53506;BME280;39388;50.936;6.848;2022-10-22T06:17:51;100604.41;;;14.21;100.00
53506;BME280;39388;50.936;6.848;2022-10-22T06:20:21;100624.19;;;14.27;100.00
53506;BME280;39388;50.936;6.848;2022-10-22T06:22:52;100617.38;;;14.21;100.00
53506;BME280;39388;50.936;6.848;2022-10-22T06:25:22;100623.47;;;14.19;100.00
53506;BME280;39388;50.936;6.848;2022-10-22T06:27:52;100620.00;;;14.20;100.00
53506;BME280;39388;50.936;6.848;2022-10-22T06:30:23;100628.50;;;14.27;100.00
53506;BME280;39388;50.936;6.848;2022-10-22T06:32:53;100631.09;;;14.27;100.00
53506;BME280;39388;50.936;6.848;2022-10-22T06:35:25;100637.16;;;14.26;100.00
53506;BME280;39388;50.936;6.848;2022-10-22T06:37:55;100638.88;;;14.27;100.00
53506;BME280;39388;50.936;6.848;2022-10-22T06:40:25;100642.47;;;14.21;100.00
53506;BME280;39388;50.936;6.848;2022-10-22T06:42:58;100651.06;;;14.21;100.00
53506;BME280;39388;50.936;6.848;2022-10-22T06:45:28;100644.19;;;14.20;100.00
53506;BME280;39388;50.936;6.848;2022-10-22T06:47:58;100648.56;;;14.18;100.00
53506;BME280;39388;50.936;6.848;2022-10-22T06:50:29;100652.06;;;14.17;100.00
53506;BME280;39388;50.936;6.848;2022-10-22T06:52:59;100656.38;;;14.17;100.00
53506;BME280;39388;50.936;6.848;2022-10-22T06:55:29;100659.00;;;14.14;100.00
53506;BME280;39388;50.936;6.848;2022-10-22T06:58:00;100651.25;;;14.14;100.00
53506;BME280;39388;50.936;6.848;2022-10-22T07:00:30;100653.91;;;14.11;100.00
53506;BME280;39388;50.936;6.848;2022-10-22T07:03:01;100658.19;;;14.13;100.00
53506;BME280;39388;50.936;6.848;2022-10-22T07:05:32;100664.19;;;14.14;100.00
53506;BME280;39388;50.936;6.848;2022-10-22T07:08:03;100672.84;;;14.14;100.00
53506;BME280;39388;50.936;6.848;2022-10-22T07:10:33;100677.09;;;14.18;100.00
53506;BME280;39388;50.936;6.848;2022-10-22T07:13:04;100672.72;;;14.20;100.00
53506;BME280;39388;50.936;6.848;2022-10-22T07:15:34;100670.94;;;14.24;100.00
53506;BME280;39388;50.936;6.848;2022-10-22T07:18:05;100688.94;;;14.32;100.00
53506;BME280;39388;50.936;6.848;2022-10-22T07:20:35;100687.13;;;14.35;100.00
53506;BME280;39388;50.936;6.848;2022-10-22T07:23:05;100675.06;;;14.33;100.00
53506;BME280;39388;50.936;6.848;2022-10-22T07:25:36;100677.50;;;14.39;100.00
53506;BME280;39388;50.936;6.848;2022-10-22T07:28:06;100694.69;;;14.46;100.00
53506;BME280;39388;50.936;6.848;2022-10-22T07:30:38;100680.94;;;14.41;100.00
53506;BME280;39388;50.936;6.848;2022-10-22T07:33:09;100707.28;;;14.63;100.00
53506;BME280;39388;50.936;6.848;2022-10-22T07:35:40;100703.72;;;14.67;100.00
53506;BME280;39388;50.936;6.848;2022-10-22T07:38:11;100706.09;;;14.80;100.00
53506;BME280;39388;50.936;6.848;2022-10-22T07:40:41;100723.91;;;14.94;100.00
53506;BME280;39388;50.936;6.848;2022-10-22T07:43:11;100717.00;;;14.94;100.00
53506;BME280;39388;50.936;6.848;2022-10-22T07:45:42;100733.25;;;15.03;100.00
53506;BME280;39388;50.936;6.848;2022-10-22T07:48:12;100720.44;;;14.95;100.00
53506;BME280;39388;50.936;6.848;2022-10-22T07:50:43;100740.13;;;15.05;100.00
53506;BME280;39388;50.936;6.848;2022-10-22T07:53:13;100736.66;;;15.05;100.00
53506;BME280;39388;50.936;6.848;2022-10-22T07:55:47;100739.03;;;15.14;100.00
53506;BME280;39388;50.936;6.848;2022-10-22T07:58:18;100740.00;;;15.46;100.00
53506;BME280;39388;50.936;6.848;2022-10-22T08:00:49;100752.69;;;15.58;100.00
53506;BME280;39388;50.936;6.848;2022-10-22T08:03:20;100759.59;;;15.61;99.50
53506;BME280;39388;50.936;6.848;2022-10-22T08:05:51;100766.44;;;15.64;99.60
53506;BME280;39388;50.936;6.848;2022-10-22T08:08:22;100771.59;;;15.65;99.57
53506;BME280;39388;50.936;6.848;2022-10-22T08:10:52;100762.06;;;15.64;99.54
53506;BME280;39388;50.936;6.848;2022-10-22T08:13:23;100768.84;;;15.71;99.20
53506;BME280;39388;50.936;6.848;2022-10-22T08:15:53;100773.91;;;15.76;99.25
53506;BME280;39388;50.936;6.848;2022-10-22T08:18:24;100789.44;;;15.79;99.00
53506;BME280;39388;50.936;6.848;2022-10-22T08:20:54;100768.78;;;15.73;99.14
53506;BME280;39388;50.936;6.848;2022-10-22T08:23:25;100785.06;;;15.81;99.23
53506;BME280;39388;50.936;6.848;2022-10-22T08:25:56;100793.63;;;15.85;99.26
53506;BME280;39388;50.936;6.848;2022-10-22T08:28:26;100792.78;;;15.84;98.99
53506;BME280;39388;50.936;6.848;2022-10-22T08:30:58;100803.19;;;15.84;99.02
53506;BME280;39388;50.936;6.848;2022-10-22T08:33:29;100798.78;;;15.86;98.56
53506;BME280;39388;50.936;6.848;2022-10-22T08:35:59;100802.19;;;15.90;98.83
53506;BME280;39388;50.936;6.848;2022-10-22T08:38:29;100806.28;;;15.99;98.49
53506;BME280;39388;50.936;6.848;2022-10-22T08:41:10;100806.16;;;16.03;98.06
53506;BME280;39388;50.936;6.848;2022-10-22T08:46:52;100812.03;;;16.12;96.77
53506;BME280;39388;50.936;6.848;2022-10-22T08:49:36;100818.00;;;16.17;96.53
53506;BME280;39388;50.936;6.848;2022-10-22T08:52:16;100810.19;;;16.17;96.31
53506;BME280;39388;50.936;6.848;2022-10-22T08:54:55;100815.31;;;16.20;95.74
53506;BME280;39388;50.936;6.848;2022-10-22T08:57:39;100816.84;;;16.27;95.68
53506;BME280;39388;50.936;6.848;2022-10-22T09:08:41;100822.38;;;16.48;93.62
53506;BME280;39388;50.936;6.848;2022-10-22T09:13:44;100836.59;;;16.66;92.44
53506;BME280;39388;50.936;6.848;2022-10-22T09:16:25;100821.97;;;16.62;91.93
53506;BME280;39388;50.936;6.848;2022-10-22T09:21:49;100844.06;;;16.78;91.41
53506;BME280;39388;50.936;6.848;2022-10-22T09:24:38;100841.31;;;16.83;90.57
53506;BME280;39388;50.936;6.848;2022-10-22T09:27:19;100851.66;;;16.86;90.48
53506;BME280;39388;50.936;6.848;2022-10-22T09:29:50;100845.56;;;16.87;90.04
53506;BME280;39388;50.936;6.848;2022-10-22T09:32:20;100849.78;;;16.91;89.39
53506;BME280;39388;50.936;6.848;2022-10-22T09:34:54;100849.78;;;16.91;88.63
53506;BME280;39388;50.936;6.848;2022-10-22T09:37:28;100849.78;;;16.91;88.08
53506;BME280;39388;50.936;6.848;2022-10-22T09:40:03;100856.72;;;16.91;88.10
53506;BME280;39388;50.936;6.848;2022-10-22T09:42:34;100849.88;;;16.87;87.68
53506;BME280;39388;50.936;6.848;2022-10-22T09:45:04;100860.09;;;16.94;87.64
53506;BME280;39388;50.936;6.848;2022-10-22T09:47:40;100852.31;;;16.93;87.38
53506;BME280;39388;50.936;6.848;2022-10-22T09:53:04;100862.59;;;16.97;87.61
53506;BME280;39388;50.936;6.848;2022-10-22T09:55:37;100866.97;;;16.97;87.71
53506;BME280;39388;50.936;6.848;2022-10-22T09:58:12;100880.84;;;16.97;87.79
53506;BME280;39388;50.936;6.848;2022-10-22T10:00:46;100881.72;;;16.96;87.35
53506;BME280;39388;50.936;6.848;2022-10-22T10:03:19;100875.63;;;16.97;87.09
53506;BME280;39388;50.936;6.848;2022-10-22T10:05:53;100880.16;;;16.91;86.82
53506;BME280;39388;50.936;6.848;2022-10-22T10:08:24;100876.75;;;16.89;86.66
53506;BME280;39388;50.936;6.848;2022-10-22T10:11:18;100897.28;;;17.00;86.34
53506;BME280;39388;50.936;6.848;2022-10-22T10:14:09;100898.09;;;17.02;85.79
53506;BME280;39388;50.936;6.848;2022-10-22T10:17:01;100901.50;;;17.04;85.84
53506;BME280;39388;50.936;6.848;2022-10-22T10:22:27;100910.97;;;17.06;85.09
53506;BME280;39388;50.936;6.848;2022-10-22T10:31:10;100914.47;;;17.05;84.17
53506;BME280;39388;50.936;6.848;2022-10-22T10:33:58;100923.16;;;17.06;84.16
53506;BME280;39388;50.936;6.848;2022-10-22T10:36:44;100914.44;;;17.07;84.13
53506;BME280;39388;50.936;6.848;2022-10-22T10:45:25;100928.16;;;17.13;83.34
53506;BME280;39388;50.936;6.848;2022-10-22T10:54:06;100928.09;;;17.15;82.53
53506;BME280;39388;50.936;6.848;2022-10-22T10:59:57;100925.91;;;17.31;82.24
53506;BME280;39388;50.936;6.848;2022-10-22T11:02:45;100930.09;;;17.37;81.51
53506;BME280;39388;50.936;6.848;2022-10-22T11:10:51;100924.00;;;17.38;80.60
53506;BME280;39388;50.936;6.848;2022-10-22T11:13:34;100922.09;;;17.43;80.22
53506;BME280;39388;50.936;6.848;2022-10-22T11:21:46;100910.16;;;17.36;79.52
53506;BME280;39388;50.936;6.848;2022-10-22T11:24:27;100931.44;;;17.50;78.98
53506;BME280;39388;50.936;6.848;2022-10-22T11:30:07;100935.75;;;17.51;78.72
53506;BME280;39388;50.936;6.848;2022-10-22T11:32:41;100937.47;;;17.52;78.48
53506;BME280;39388;50.936;6.848;2022-10-22T11:35:23;100941.84;;;17.50;78.55
53506;BME280;39388;50.936;6.848;2022-10-22T11:37:56;100936.72;;;17.49;78.73
53506;BME280;39388;50.936;6.848;2022-10-22T11:45:41;100935.00;;;17.48;78.33
53506;BME280;39388;50.936;6.848;2022-10-22T11:48:17;100932.31;;;17.51;78.22
53506;BME280;39388;50.936;6.848;2022-10-22T11:50:55;100938.25;;;17.56;78.17
53506;BME280;39388;50.936;6.848;2022-10-22T11:53:34;100938.91;;;17.63;77.68
53506;BME280;39388;50.936;6.848;2022-10-22T11:58:42;100932.53;;;17.71;77.54
53506;BME280;39388;50.936;6.848;2022-10-22T12:06:27;100922.97;;;17.72;76.68
53506;BME280;39388;50.936;6.848;2022-10-22T12:09:00;100931.59;;;17.74;76.58
53506;BME280;39388;50.936;6.848;2022-10-22T12:11:44;100930.53;;;17.80;76.30
53506;BME280;39388;50.936;6.848;2022-10-22T12:19:31;100923.22;;;17.91;76.68
53506;BME280;39388;50.936;6.848;2022-10-22T12:22:13;100919.53;;;17.98;76.04
53506;BME280;39388;50.936;6.848;2022-10-22T12:24:47;100911.44;;;18.06;76.08
53506;BME280;39388;50.936;6.848;2022-10-22T12:27:21;100910.22;;;18.16;75.84
53506;BME280;39388;50.936;6.848;2022-10-22T12:29:55;100906.34;;;18.28;75.36
53506;BME280;39388;50.936;6.848;2022-10-22T12:32:37;100913.75;;;18.42;75.27
53506;BME280;39388;50.936;6.848;2022-10-22T12:35:19;100911.59;;;18.54;74.90
53506;BME280;39388;50.936;6.848;2022-10-22T12:37:51;100913.69;;;18.69;74.44
53506;BME280;39388;50.936;6.848;2022-10-22T12:40:29;100893.38;;;18.77;73.99
53506;BME280;39388;50.936;6.848;2022-10-22T12:43:09;100899.09;;;18.87;73.56
53506;BME280;39388;50.936;6.848;2022-10-22T12:45:43;100888.59;;;18.89;73.16
53506;BME280;39388;50.936;6.848;2022-10-22T12:48:17;100880.13;;;18.82;72.91
53506;BME280;39388;50.936;6.848;2022-10-22T12:50:54;100875.84;;;18.79;72.59
53506;BME280;39388;50.936;6.848;2022-10-22T12:53:30;100885.25;;;18.85;72.50
53506;BME280;39388;50.936;6.848;2022-10-22T12:56:03;100887.88;;;18.85;71.98
53506;BME280;39388;50.936;6.848;2022-10-22T12:58:40;100885.28;;;18.84;71.85
53506;BME280;39388;50.936;6.848;2022-10-22T13:01:13;100880.97;;;18.83;71.90
53506;BME280;39388;50.936;6.848;2022-10-22T13:03:46;100873.22;;;18.81;71.78
53506;BME280;39388;50.936;6.848;2022-10-22T13:11:41;100869.69;;;18.82;71.23
53506;BME280;39388;50.936;6.848;2022-10-22T13:14:19;100858.16;;;18.88;71.52
53506;BME280;39388;50.936;6.848;2022-10-22T13:17:14;100879.22;;;19.07;71.01
53506;BME280;39388;50.936;6.848;2022-10-22T13:22:34;100880.06;;;19.07;71.18
53506;BME280;39388;50.936;6.848;2022-10-22T13:27:58;100881.94;;;19.04;70.96
53506;BME280;39388;50.936;6.848;2022-10-22T13:30:31;100882.19;;;18.98;70.85
53506;BME280;39388;50.936;6.848;2022-10-22T13:33:05;100871.88;;;18.93;71.08
53506;BME280;39388;50.936;6.848;2022-10-22T13:35:37;100880.69;;;18.90;70.88
53506;BME280;39388;50.936;6.848;2022-10-22T13:38:14;100885.88;;;18.92;70.70
53506;BME280;39388;50.936;6.848;2022-10-22T13:40:47;100880.38;;;19.00;70.70
53506;BME280;39388;50.936;6.848;2022-10-22T13:43:18;100881.81;;;19.07;70.29
53506;BME280;39388;50.936;6.848;2022-10-22T13:45:52;100877.34;;;19.10;69.85
53506;BME280;39388;50.936;6.848;2022-10-22T13:48:24;100879.94;;;19.10;69.93
53506;BME280;39388;50.936;6.848;2022-10-22T13:50:55;100883.59;;;19.06;70.00
53506;BME280;39388;50.936;6.848;2022-10-22T13:53:27;100880.19;;;19.04;70.21
53506;BME280;39388;50.936;6.848;2022-10-22T13:55:58;100887.78;;;19.10;70.73
53506;BME280;39388;50.936;6.848;2022-10-22T13:58:28;100886.84;;;19.13;70.82
53506;BME280;39388;50.936;6.848;2022-10-22T14:00:59;100883.34;;;19.13;70.38
53506;BME280;39388;50.936;6.848;2022-10-22T14:03:33;100887.44;;;19.20;70.15
53506;BME280;39388;50.936;6.848;2022-10-22T14:06:09;100876.75;;;19.26;69.75
53506;BME280;39388;50.936;6.848;2022-10-22T14:08:44;100877.63;;;19.26;69.57
53506;BME280;39388;50.936;6.848;2022-10-22T14:11:15;100870.22;;;19.14;69.69
53506;BME280;39388;50.936;6.848;2022-10-22T14:13:46;100880.19;;;19.04;69.98
53506;BME280;39388;50.936;6.848;2022-10-22T14:16:20;100893.66;;;18.93;70.65
53506;BME280;39388;50.936;6.848;2022-10-22T14:18:53;100892.22;;;18.85;71.06
53506;BME280;39388;50.936;6.848;2022-10-22T14:21:24;100899.38;;;18.79;71.48
53506;BME280;39388;50.936;6.848;2022-10-22T14:23:55;100890.75;;;18.77;71.96
53506;BME280;39388;50.936;6.848;2022-10-22T14:26:28;100895.97;;;18.77;72.29
53506;BME280;39388;50.936;6.848;2022-10-22T14:29:01;100890.69;;;18.79;72.26
53506;BME280;39388;50.936;6.848;2022-10-22T14:31:31;100894.94;;;18.81;72.65
53506;BME280;39388;50.936;6.848;2022-10-22T14:34:02;100897.53;;;18.83;72.87
53506;BME280;39388;50.936;6.848;2022-10-22T14:36:32;100885.47;;;18.79;73.13
53506;BME280;39388;50.936;6.848;2022-10-22T14:39:02;100898.47;;;18.80;73.56
53506;BME280;39388;50.936;6.848;2022-10-22T14:41:33;100887.28;;;18.77;73.56
53506;BME280;39388;50.936;6.848;2022-10-22T14:44:04;100876.09;;;18.73;73.40
53506;BME280;39388;50.936;6.848;2022-10-22T14:46:34;100891.53;;;18.79;73.25
53506;BME280;39388;50.936;6.848;2022-10-22T14:49:04;100891.31;;;18.86;72.89
53506;BME280;39388;50.936;6.848;2022-10-22T14:51:35;100876.63;;;18.83;73.09
53506;BME280;39388;50.936;6.848;2022-10-22T14:54:05;100889.44;;;18.89;72.77
53506;BME280;39388;50.936;6.848;2022-10-22T14:56:36;100886.81;;;18.89;72.57
53506;BME280;39388;50.936;6.848;2022-10-22T14:59:09;100891.94;;;18.92;72.24
53506;BME280;39388;50.936;6.848;2022-10-22T15:01:40;100884.28;;;18.88;72.23
53506;BME280;39388;50.936;6.848;2022-10-22T15:04:11;100891.16;;;18.90;72.59
53506;BME280;39388;50.936;6.848;2022-10-22T15:06:42;100891.22;;;18.89;72.52